sensor_id;sensor_type;location;lat;lon;timestamp;P1;durP1;ratioP1;P2;durP2;ratioP2
11675;SDS011;5894;42.768;23.404;2023-01-28T00:02:25;6.07;;;4.90;;
11675;SDS011;5894;42.768;23.404;2023-01-28T00:04:53;7.57;;;5.00;;
11675;SDS011;5894;42.768;23.404;2023-01-28T00:07:23;6.20;;;4.80;;
11675;SDS011;5894;42.768;23.404;2023-01-28T00:09:50;6.60;;;4.60;;
11675;SDS011;5894;42.768;23.404;2023-01-28T00:12:16;6.30;;;4.70;;
11675;SDS011;5894;42.768;23.404;2023-01-28T00:14:43;7.40;;;5.17;;
11675;SDS011;5894;42.768;23.404;2023-01-28T00:17:12;6.53;;;4.80;;
11675;SDS011;5894;42.768;23.404;2023-01-28T00:19:40;6.13;;;5.03;;
11675;SDS011;5894;42.768;23.404;2023-01-28T00:22:09;6.60;;;4.80;;
11675;SDS011;5894;42.768;23.404;2023-01-28T00:24:37;5.50;;;4.60;;
11675;SDS011;5894;42.768;23.404;2023-01-28T00:27:04;5.33;;;4.60;;
11675;SDS011;5894;42.768;23.404;2023-01-28T00:29:32;6.23;;;5.00;;
11675;SDS011;5894;42.768;23.404;2023-01-28T00:31:59;6.50;;;4.63;;
11675;SDS011;5894;42.768;23.404;2023-01-28T00:34:28;5.80;;;4.37;;
11675;SDS011;5894;42.768;23.404;2023-01-28T00:36:55;5.57;;;4.40;;
11675;SDS011;5894;42.768;23.404;2023-01-28T00:39:26;6.53;;;5.20;;
11675;SDS011;5894;42.768;23.404;2023-01-28T00:41:53;6.67;;;4.63;;
11675;SDS011;5894;42.768;23.404;2023-01-28T00:44:23;5.43;;;4.47;;
11675;SDS011;5894;42.768;23.404;2023-01-28T00:46:49;5.43;;;4.63;;
11675;SDS011;5894;42.768;23.404;2023-01-28T00:49:17;5.60;;;4.40;;
11675;SDS011;5894;42.768;23.404;2023-01-28T00:51:44;5.63;;;4.50;;
11675;SDS011;5894;42.768;23.404;2023-01-28T00:54:14;6.93;;;4.73;;
11675;SDS011;5894;42.768;23.404;2023-01-28T00:56:42;5.47;;;4.60;;
11675;SDS011;5894;42.768;23.404;2023-01-28T00:59:09;4.47;;;3.93;;
11675;SDS011;5894;42.768;23.404;2023-01-28T01:01:36;5.73;;;4.37;;
11675;SDS011;5894;42.768;23.404;2023-01-28T01:04:03;5.70;;;4.33;;
11675;SDS011;5894;42.768;23.404;2023-01-28T01:06:31;5.67;;;4.27;;
11675;SDS011;5894;42.768;23.404;2023-01-28T01:09:00;5.10;;;4.13;;
11675;SDS011;5894;42.768;23.404;2023-01-28T01:11:28;5.17;;;4.27;;
11675;SDS011;5894;42.768;23.404;2023-01-28T01:13:57;5.73;;;4.43;;
11675;SDS011;5894;42.768;23.404;2023-01-28T01:16:26;4.73;;;4.00;;
11675;SDS011;5894;42.768;23.404;2023-01-28T01:18:54;6.60;;;4.43;;
11675;SDS011;5894;42.768;23.404;2023-01-28T01:21:24;5.00;;;3.73;;
11675;SDS011;5894;42.768;23.404;2023-01-28T01:23:53;4.73;;;3.57;;
11675;SDS011;5894;42.768;23.404;2023-01-28T01:26:21;4.70;;;3.97;;
11675;SDS011;5894;42.768;23.404;2023-01-28T01:28:49;5.17;;;4.20;;
11675;SDS011;5894;42.768;23.404;2023-01-28T01:31:18;5.33;;;4.17;;
11675;SDS011;5894;42.768;23.404;2023-01-28T01:33:47;4.60;;;3.87;;
11675;SDS011;5894;42.768;23.404;2023-01-28T01:36:16;4.93;;;4.03;;
11675;SDS011;5894;42.768;23.404;2023-01-28T01:38:44;4.27;;;3.60;;
11675;SDS011;5894;42.768;23.404;2023-01-28T01:41:15;6.83;;;3.73;;
11675;SDS011;5894;42.768;23.404;2023-01-28T01:43:50;5.13;;;4.30;;
11675;SDS011;5894;42.768;23.404;2023-01-28T01:46:21;5.73;;;4.23;;
11675;SDS011;5894;42.768;23.404;2023-01-28T01:48:53;5.47;;;4.00;;
11675;SDS011;5894;42.768;23.404;2023-01-28T01:51:23;5.00;;;3.80;;
11675;SDS011;5894;42.768;23.404;2023-01-28T01:53:55;5.20;;;4.33;;
11675;SDS011;5894;42.768;23.404;2023-01-28T01:56:24;5.40;;;4.60;;
11675;SDS011;5894;42.768;23.404;2023-01-28T01:58:56;5.00;;;3.90;;
11675;SDS011;5894;42.768;23.404;2023-01-28T02:01:25;5.17;;;4.30;;
11675;SDS011;5894;42.768;23.404;2023-01-28T02:03:56;5.10;;;4.13;;
11675;SDS011;5894;42.768;23.404;2023-01-28T02:06:29;5.50;;;4.37;;
11675;SDS011;5894;42.768;23.404;2023-01-28T02:08:57;5.00;;;4.10;;
11675;SDS011;5894;42.768;23.404;2023-01-28T02:11:24;5.17;;;4.17;;
11675;SDS011;5894;42.768;23.404;2023-01-28T02:13:56;6.43;;;4.80;;
11675;SDS011;5894;42.768;23.404;2023-01-28T02:16:28;6.23;;;4.90;;
11675;SDS011;5894;42.768;23.404;2023-01-28T02:18:57;5.67;;;4.47;;
11675;SDS011;5894;42.768;23.404;2023-01-28T02:21:37;6.07;;;4.73;;
11675;SDS011;5894;42.768;23.404;2023-01-28T02:27:33;6.17;;;4.80;;
11675;SDS011;5894;42.768;23.404;2023-01-28T02:30:06;6.27;;;4.70;;
11675;SDS011;5894;42.768;23.404;2023-01-28T02:32:42;6.40;;;5.03;;
11675;SDS011;5894;42.768;23.404;2023-01-28T02:35:17;6.13;;;4.70;;
11675;SDS011;5894;42.768;23.404;2023-01-28T02:37:50;5.77;;;4.80;;
11675;SDS011;5894;42.768;23.404;2023-01-28T02:40:21;6.27;;;4.90;;
11675;SDS011;5894;42.768;23.404;2023-01-28T02:42:55;7.33;;;5.33;;
11675;SDS011;5894;42.768;23.404;2023-01-28T02:45:26;7.10;;;5.33;;
11675;SDS011;5894;42.768;23.404;2023-01-28T02:48:19;7.67;;;5.40;;
11675;SDS011;5894;42.768;23.404;2023-01-28T02:50:48;7.23;;;5.53;;
11675;SDS011;5894;42.768;23.404;2023-01-28T02:53:23;6.27;;;4.87;;
11675;SDS011;5894;42.768;23.404;2023-01-28T02:56:12;6.90;;;5.07;;
11675;SDS011;5894;42.768;23.404;2023-01-28T02:58:46;6.57;;;4.97;;
11675;SDS011;5894;42.768;23.404;2023-01-28T03:01:23;5.87;;;4.70;;
11675;SDS011;5894;42.768;23.404;2023-01-28T03:03:56;5.67;;;4.47;;
11675;SDS011;5894;42.768;23.404;2023-01-28T03:06:27;5.73;;;4.80;;
11675;SDS011;5894;42.768;23.404;2023-01-28T03:09:02;7.30;;;4.80;;
11675;SDS011;5894;42.768;23.404;2023-01-28T03:11:53;6.30;;;4.87;;
11675;SDS011;5894;42.768;23.404;2023-01-28T03:14:41;5.77;;;4.63;;
11675;SDS011;5894;42.768;23.404;2023-01-28T03:17:31;6.20;;;4.90;;
11675;SDS011;5894;42.768;23.404;2023-01-28T03:20:21;6.90;;;4.80;;
11675;SDS011;5894;42.768;23.404;2023-01-28T03:23:09;5.83;;;4.80;;
11675;SDS011;5894;42.768;23.404;2023-01-28T03:25:59;6.30;;;4.60;;
11675;SDS011;5894;42.768;23.404;2023-01-28T03:28:46;7.13;;;5.00;;
11675;SDS011;5894;42.768;23.404;2023-01-28T03:31:33;7.60;;;5.10;;
11675;SDS011;5894;42.768;23.404;2023-01-28T03:34:21;8.07;;;5.27;;
11675;SDS011;5894;42.768;23.404;2023-01-28T03:37:06;6.37;;;4.83;;
11675;SDS011;5894;42.768;23.404;2023-01-28T03:39:44;6.50;;;4.70;;
11675;SDS011;5894;42.768;23.404;2023-01-28T03:42:12;6.13;;;4.80;;
11675;SDS011;5894;42.768;23.404;2023-01-28T03:44:59;7.87;;;5.27;;
11675;SDS011;5894;42.768;23.404;2023-01-28T03:47:29;7.23;;;5.03;;
11675;SDS011;5894;42.768;23.404;2023-01-28T03:50:01;5.97;;;4.67;;
11675;SDS011;5894;42.768;23.404;2023-01-28T03:52:37;5.73;;;4.43;;
11675;SDS011;5894;42.768;23.404;2023-01-28T03:55:20;6.17;;;5.00;;
11675;SDS011;5894;42.768;23.404;2023-01-28T03:57:50;5.37;;;4.23;;
11675;SDS011;5894;42.768;23.404;2023-01-28T04:00:17;6.73;;;4.80;;
11675;SDS011;5894;42.768;23.404;2023-01-28T04:02:46;9.03;;;5.80;;
11675;SDS011;5894;42.768;23.404;2023-01-28T04:05:17;7.00;;;4.97;;
11675;SDS011;5894;42.768;23.404;2023-01-28T04:07:47;6.43;;;5.10;;
11675;SDS011;5894;42.768;23.404;2023-01-28T04:10:20;5.63;;;4.50;;
11675;SDS011;5894;42.768;23.404;2023-01-28T04:12:54;7.10;;;5.20;;
11675;SDS011;5894;42.768;23.404;2023-01-28T04:15:23;5.47;;;4.67;;
11675;SDS011;5894;42.768;23.404;2023-01-28T04:17:50;6.03;;;4.90;;
11675;SDS011;5894;42.768;23.404;2023-01-28T04:20:23;5.87;;;4.83;;
11675;SDS011;5894;42.768;23.404;2023-01-28T04:22:51;5.90;;;4.63;;
11675;SDS011;5894;42.768;23.404;2023-01-28T04:25:21;5.37;;;4.33;;
11675;SDS011;5894;42.768;23.404;2023-01-28T04:27:48;6.37;;;5.17;;
11675;SDS011;5894;42.768;23.404;2023-01-28T04:30:19;7.47;;;5.10;;
11675;SDS011;5894;42.768;23.404;2023-01-28T04:32:59;6.13;;;5.10;;
11675;SDS011;5894;42.768;23.404;2023-01-28T04:35:51;7.10;;;5.10;;
11675;SDS011;5894;42.768;23.404;2023-01-28T04:38:43;6.90;;;5.17;;
11675;SDS011;5894;42.768;23.404;2023-01-28T04:41:28;6.23;;;4.77;;
11675;SDS011;5894;42.768;23.404;2023-01-28T04:44:04;6.30;;;5.10;;
11675;SDS011;5894;42.768;23.404;2023-01-28T04:46:57;7.17;;;5.30;;
11675;SDS011;5894;42.768;23.404;2023-01-28T04:49:53;7.17;;;5.53;;
11675;SDS011;5894;42.768;23.404;2023-01-28T04:52:56;6.93;;;5.40;;
11675;SDS011;5894;42.768;23.404;2023-01-28T04:55:46;7.63;;;5.47;;
11675;SDS011;5894;42.768;23.404;2023-01-28T04:58:13;6.53;;;4.80;;
11675;SDS011;5894;42.768;23.404;2023-01-28T05:00:42;6.17;;;4.83;;
11675;SDS011;5894;42.768;23.404;2023-01-28T05:03:08;6.60;;;5.17;;
11675;SDS011;5894;42.768;23.404;2023-01-28T05:05:35;7.03;;;5.10;;
11675;SDS011;5894;42.768;23.404;2023-01-28T05:08:17;7.03;;;5.50;;
11675;SDS011;5894;42.768;23.404;2023-01-28T05:10:46;6.50;;;5.10;;
11675;SDS011;5894;42.768;23.404;2023-01-28T05:13:13;6.30;;;5.27;;
11675;SDS011;5894;42.768;23.404;2023-01-28T05:15:40;7.50;;;5.40;;
11675;SDS011;5894;42.768;23.404;2023-01-28T05:18:07;7.13;;;5.63;;
11675;SDS011;5894;42.768;23.404;2023-01-28T05:20:39;9.43;;;6.10;;
11675;SDS011;5894;42.768;23.404;2023-01-28T05:23:06;8.23;;;6.13;;
11675;SDS011;5894;42.768;23.404;2023-01-28T05:25:52;7.70;;;5.30;;
11675;SDS011;5894;42.768;23.404;2023-01-28T05:28:19;6.90;;;4.90;;
11675;SDS011;5894;42.768;23.404;2023-01-28T05:30:46;7.27;;;5.00;;
11675;SDS011;5894;42.768;23.404;2023-01-28T05:33:12;7.03;;;5.30;;
11675;SDS011;5894;42.768;23.404;2023-01-28T05:35:40;6.03;;;5.00;;
11675;SDS011;5894;42.768;23.404;2023-01-28T05:38:08;8.13;;;5.60;;
11675;SDS011;5894;42.768;23.404;2023-01-28T05:40:36;7.53;;;5.33;;
11675;SDS011;5894;42.768;23.404;2023-01-28T05:43:04;9.33;;;6.00;;
11675;SDS011;5894;42.768;23.404;2023-01-28T05:45:42;7.27;;;5.20;;
11675;SDS011;5894;42.768;23.404;2023-01-28T05:48:19;7.13;;;5.37;;
11675;SDS011;5894;42.768;23.404;2023-01-28T05:51:04;7.83;;;5.47;;
11675;SDS011;5894;42.768;23.404;2023-01-28T05:53:34;7.57;;;5.57;;
11675;SDS011;5894;42.768;23.404;2023-01-28T05:56:01;9.53;;;6.70;;
11675;SDS011;5894;42.768;23.404;2023-01-28T05:58:31;8.80;;;6.57;;
11675;SDS011;5894;42.768;23.404;2023-01-28T06:01:01;10.83;;;7.37;;
11675;SDS011;5894;42.768;23.404;2023-01-28T06:03:36;9.23;;;6.27;;
11675;SDS011;5894;42.768;23.404;2023-01-28T06:06:03;9.90;;;6.50;;
11675;SDS011;5894;42.768;23.404;2023-01-28T06:08:30;8.47;;;6.07;;
11675;SDS011;5894;42.768;23.404;2023-01-28T06:10:58;7.30;;;5.57;;
11675;SDS011;5894;42.768;23.404;2023-01-28T06:13:26;8.40;;;6.03;;
11675;SDS011;5894;42.768;23.404;2023-01-28T06:16:15;7.27;;;5.30;;
11675;SDS011;5894;42.768;23.404;2023-01-28T06:18:54;7.13;;;5.23;;
11675;SDS011;5894;42.768;23.404;2023-01-28T06:21:21;7.17;;;5.40;;
11675;SDS011;5894;42.768;23.404;2023-01-28T06:23:48;7.97;;;5.47;;
11675;SDS011;5894;42.768;23.404;2023-01-28T06:26:15;7.40;;;5.97;;
11675;SDS011;5894;42.768;23.404;2023-01-28T06:28:44;7.87;;;5.90;;
11675;SDS011;5894;42.768;23.404;2023-01-28T06:31:11;8.57;;;6.43;;
11675;SDS011;5894;42.768;23.404;2023-01-28T06:33:39;8.97;;;6.30;;
11675;SDS011;5894;42.768;23.404;2023-01-28T06:36:06;8.17;;;6.40;;
11675;SDS011;5894;42.768;23.404;2023-01-28T06:38:34;7.80;;;5.77;;
11675;SDS011;5894;42.768;23.404;2023-01-28T06:41:00;9.03;;;6.47;;
11675;SDS011;5894;42.768;23.404;2023-01-28T06:43:27;9.43;;;6.90;;
11675;SDS011;5894;42.768;23.404;2023-01-28T06:45:55;9.37;;;6.90;;
11675;SDS011;5894;42.768;23.404;2023-01-28T06:48:22;9.37;;;6.77;;
11675;SDS011;5894;42.768;23.404;2023-01-28T06:50:50;10.00;;;6.60;;
11675;SDS011;5894;42.768;23.404;2023-01-28T06:53:17;8.87;;;6.43;;
11675;SDS011;5894;42.768;23.404;2023-01-28T06:55:45;9.03;;;6.83;;
11675;SDS011;5894;42.768;23.404;2023-01-28T06:58:11;11.27;;;7.80;;
11675;SDS011;5894;42.768;23.404;2023-01-28T07:00:38;10.80;;;6.97;;
11675;SDS011;5894;42.768;23.404;2023-01-28T07:03:05;11.27;;;7.03;;
11675;SDS011;5894;42.768;23.404;2023-01-28T07:05:32;10.00;;;6.80;;
11675;SDS011;5894;42.768;23.404;2023-01-28T07:08:00;9.07;;;6.23;;
11675;SDS011;5894;42.768;23.404;2023-01-28T07:10:28;9.83;;;6.60;;
11675;SDS011;5894;42.768;23.404;2023-01-28T07:12:55;9.77;;;6.97;;
11675;SDS011;5894;42.768;23.404;2023-01-28T07:15:22;9.43;;;7.17;;
11675;SDS011;5894;42.768;23.404;2023-01-28T07:17:49;9.87;;;6.97;;
11675;SDS011;5894;42.768;23.404;2023-01-28T07:20:17;9.63;;;6.77;;
11675;SDS011;5894;42.768;23.404;2023-01-28T07:22:44;9.07;;;6.57;;
11675;SDS011;5894;42.768;23.404;2023-01-28T07:25:13;10.30;;;7.20;;
11675;SDS011;5894;42.768;23.404;2023-01-28T07:27:44;10.07;;;7.10;;
11675;SDS011;5894;42.768;23.404;2023-01-28T07:30:12;7.33;;;5.53;;
11675;SDS011;5894;42.768;23.404;2023-01-28T07:32:39;8.77;;;6.40;;
11675;SDS011;5894;42.768;23.404;2023-01-28T07:35:06;9.17;;;6.23;;
11675;SDS011;5894;42.768;23.404;2023-01-28T07:37:33;9.13;;;6.60;;
11675;SDS011;5894;42.768;23.404;2023-01-28T07:40:00;9.43;;;7.03;;
11675;SDS011;5894;42.768;23.404;2023-01-28T07:42:29;9.70;;;6.87;;
11675;SDS011;5894;42.768;23.404;2023-01-28T07:45:01;11.03;;;6.80;;
11675;SDS011;5894;42.768;23.404;2023-01-28T07:47:29;10.27;;;6.77;;
11675;SDS011;5894;42.768;23.404;2023-01-28T07:49:56;9.27;;;6.60;;
11675;SDS011;5894;42.768;23.404;2023-01-28T07:52:22;8.57;;;6.57;;
11675;SDS011;5894;42.768;23.404;2023-01-28T07:54:49;9.17;;;6.60;;
11675;SDS011;5894;42.768;23.404;2023-01-28T07:57:16;11.17;;;7.70;;
11675;SDS011;5894;42.768;23.404;2023-01-28T07:59:48;9.70;;;7.00;;
11675;SDS011;5894;42.768;23.404;2023-01-28T08:02:16;9.60;;;7.37;;
11675;SDS011;5894;42.768;23.404;2023-01-28T08:04:44;8.13;;;6.20;;
11675;SDS011;5894;42.768;23.404;2023-01-28T08:07:12;9.33;;;6.73;;
11675;SDS011;5894;42.768;23.404;2023-01-28T08:09:39;10.63;;;7.40;;
11675;SDS011;5894;42.768;23.404;2023-01-28T08:12:06;11.43;;;7.37;;
11675;SDS011;5894;42.768;23.404;2023-01-28T08:14:32;11.60;;;8.33;;
11675;SDS011;5894;42.768;23.404;2023-01-28T08:17:01;14.93;;;7.93;;
11675;SDS011;5894;42.768;23.404;2023-01-28T08:19:27;11.23;;;8.13;;
11675;SDS011;5894;42.768;23.404;2023-01-28T08:21:54;10.17;;;7.43;;
11675;SDS011;5894;42.768;23.404;2023-01-28T08:24:21;11.13;;;7.60;;
11675;SDS011;5894;42.768;23.404;2023-01-28T08:26:48;12.10;;;8.40;;
11675;SDS011;5894;42.768;23.404;2023-01-28T08:29:15;10.73;;;7.63;;
11675;SDS011;5894;42.768;23.404;2023-01-28T08:31:43;10.80;;;7.50;;
11675;SDS011;5894;42.768;23.404;2023-01-28T08:34:11;12.40;;;7.57;;
11675;SDS011;5894;42.768;23.404;2023-01-28T08:36:38;12.43;;;8.07;;
11675;SDS011;5894;42.768;23.404;2023-01-28T08:39:05;10.50;;;7.20;;
11675;SDS011;5894;42.768;23.404;2023-01-28T08:41:33;10.67;;;7.63;;
11675;SDS011;5894;42.768;23.404;2023-01-28T08:44:00;11.33;;;7.90;;
11675;SDS011;5894;42.768;23.404;2023-01-28T08:46:27;12.93;;;7.97;;
11675;SDS011;5894;42.768;23.404;2023-01-28T08:48:54;11.80;;;7.83;;
11675;SDS011;5894;42.768;23.404;2023-01-28T08:51:22;11.83;;;7.60;;
11675;SDS011;5894;42.768;23.404;2023-01-28T08:53:48;11.13;;;7.40;;
11675;SDS011;5894;42.768;23.404;2023-01-28T08:56:15;11.93;;;7.30;;
11675;SDS011;5894;42.768;23.404;2023-01-28T08:58:42;9.73;;;7.53;;
11675;SDS011;5894;42.768;23.404;2023-01-28T09:01:09;10.07;;;7.37;;
11675;SDS011;5894;42.768;23.404;2023-01-28T09:03:36;11.03;;;7.77;;
11675;SDS011;5894;42.768;23.404;2023-01-28T09:06:03;8.80;;;6.27;;
11675;SDS011;5894;42.768;23.404;2023-01-28T09:08:31;8.50;;;6.23;;
11675;SDS011;5894;42.768;23.404;2023-01-28T09:10:58;9.67;;;6.13;;
11675;SDS011;5894;42.768;23.404;2023-01-28T09:13:25;7.47;;;5.70;;
11675;SDS011;5894;42.768;23.404;2023-01-28T09:15:53;7.60;;;5.57;;
11675;SDS011;5894;42.768;23.404;2023-01-28T09:18:20;7.57;;;5.50;;
11675;SDS011;5894;42.768;23.404;2023-01-28T09:20:46;8.17;;;5.33;;
11675;SDS011;5894;42.768;23.404;2023-01-28T09:23:13;6.90;;;5.40;;
11675;SDS011;5894;42.768;23.404;2023-01-28T09:25:41;7.43;;;5.50;;
11675;SDS011;5894;42.768;23.404;2023-01-28T09:28:08;6.40;;;5.33;;
11675;SDS011;5894;42.768;23.404;2023-01-28T09:30:35;7.03;;;6.00;;
11675;SDS011;5894;42.768;23.404;2023-01-28T09:33:03;7.47;;;5.83;;
11675;SDS011;5894;42.768;23.404;2023-01-28T09:35:32;7.87;;;5.90;;
11675;SDS011;5894;42.768;23.404;2023-01-28T09:37:59;8.03;;;6.17;;
11675;SDS011;5894;42.768;23.404;2023-01-28T09:40:29;9.63;;;5.93;;
11675;SDS011;5894;42.768;23.404;2023-01-28T09:46:03;7.47;;;5.13;;
11675;SDS011;5894;42.768;23.404;2023-01-28T09:48:33;7.60;;;5.70;;
11675;SDS011;5894;42.768;23.404;2023-01-28T09:51:06;9.40;;;6.20;;
11675;SDS011;5894;42.768;23.404;2023-01-28T09:53:36;8.83;;;6.20;;
11675;SDS011;5894;42.768;23.404;2023-01-28T09:56:09;9.93;;;6.90;;
11675;SDS011;5894;42.768;23.404;2023-01-28T09:58:41;10.57;;;6.93;;
11675;SDS011;5894;42.768;23.404;2023-01-28T10:01:13;9.97;;;6.83;;
11675;SDS011;5894;42.768;23.404;2023-01-28T10:03:57;9.77;;;7.13;;
11675;SDS011;5894;42.768;23.404;2023-01-28T10:06:33;10.60;;;7.33;;
11675;SDS011;5894;42.768;23.404;2023-01-28T10:09:31;9.20;;;6.70;;
11675;SDS011;5894;42.768;23.404;2023-01-28T10:12:12;9.57;;;7.10;;
11675;SDS011;5894;42.768;23.404;2023-01-28T10:14:57;9.03;;;7.17;;
11675;SDS011;5894;42.768;23.404;2023-01-28T10:17:36;9.13;;;6.83;;
11675;SDS011;5894;42.768;23.404;2023-01-28T10:20:13;9.10;;;7.07;;
11675;SDS011;5894;42.768;23.404;2023-01-28T10:22:47;11.03;;;6.87;;
11675;SDS011;5894;42.768;23.404;2023-01-28T10:25:20;11.27;;;7.90;;
11675;SDS011;5894;42.768;23.404;2023-01-28T10:27:48;10.73;;;7.70;;
11675;SDS011;5894;42.768;23.404;2023-01-28T10:30:19;9.67;;;6.97;;
11675;SDS011;5894;42.768;23.404;2023-01-28T10:32:49;10.83;;;8.03;;
11675;SDS011;5894;42.768;23.404;2023-01-28T10:35:18;10.37;;;7.47;;
11675;SDS011;5894;42.768;23.404;2023-01-28T10:37:45;11.83;;;7.90;;
11675;SDS011;5894;42.768;23.404;2023-01-28T10:40:14;11.13;;;7.63;;
11675;SDS011;5894;42.768;23.404;2023-01-28T10:42:41;12.30;;;8.07;;
11675;SDS011;5894;42.768;23.404;2023-01-28T10:45:13;10.77;;;7.80;;
11675;SDS011;5894;42.768;23.404;2023-01-28T10:47:45;10.83;;;7.47;;
11675;SDS011;5894;42.768;23.404;2023-01-28T10:50:14;11.17;;;8.00;;
11675;SDS011;5894;42.768;23.404;2023-01-28T10:52:51;11.50;;;7.90;;
11675;SDS011;5894;42.768;23.404;2023-01-28T10:55:19;10.07;;;7.50;;
11675;SDS011;5894;42.768;23.404;2023-01-28T10:57:46;10.90;;;8.07;;
11675;SDS011;5894;42.768;23.404;2023-01-28T11:00:21;12.10;;;7.97;;
11675;SDS011;5894;42.768;23.404;2023-01-28T11:02:52;11.33;;;7.93;;
11675;SDS011;5894;42.768;23.404;2023-01-28T11:05:20;11.37;;;7.73;;
11675;SDS011;5894;42.768;23.404;2023-01-28T11:07:50;10.37;;;7.40;;
11675;SDS011;5894;42.768;23.404;2023-01-28T11:10:29;9.67;;;7.53;;
11675;SDS011;5894;42.768;23.404;2023-01-28T11:12:58;9.70;;;7.23;;
11675;SDS011;5894;42.768;23.404;2023-01-28T11:15:26;9.20;;;6.30;;
11675;SDS011;5894;42.768;23.404;2023-01-28T11:17:56;8.40;;;6.13;;
11675;SDS011;5894;42.768;23.404;2023-01-28T11:20:27;8.27;;;6.60;;
11675;SDS011;5894;42.768;23.404;2023-01-28T11:22:56;10.03;;;7.33;;
11675;SDS011;5894;42.768;23.404;2023-01-28T11:25:26;8.70;;;6.43;;
11675;SDS011;5894;42.768;23.404;2023-01-28T11:27:56;8.37;;;6.03;;
11675;SDS011;5894;42.768;23.404;2023-01-28T11:30:25;9.20;;;6.67;;
11675;SDS011;5894;42.768;23.404;2023-01-28T11:32:55;8.37;;;6.10;;
11675;SDS011;5894;42.768;23.404;2023-01-28T11:35:25;8.87;;;6.37;;
11675;SDS011;5894;42.768;23.404;2023-01-28T11:37:54;7.57;;;5.70;;
11675;SDS011;5894;42.768;23.404;2023-01-28T11:40:21;8.13;;;5.83;;
11675;SDS011;5894;42.768;23.404;2023-01-28T11:42:49;9.37;;;6.33;;
11675;SDS011;5894;42.768;23.404;2023-01-28T11:45:17;9.47;;;6.03;;
11675;SDS011;5894;42.768;23.404;2023-01-28T11:47:48;9.27;;;6.03;;
11675;SDS011;5894;42.768;23.404;2023-01-28T11:50:28;7.83;;;5.90;;
11675;SDS011;5894;42.768;23.404;2023-01-28T11:53:07;8.23;;;5.70;;
11675;SDS011;5894;42.768;23.404;2023-01-28T11:55:51;7.27;;;5.80;;
11675;SDS011;5894;42.768;23.404;2023-01-28T11:58:30;6.90;;;5.63;;
11675;SDS011;5894;42.768;23.404;2023-01-28T12:01:07;7.37;;;5.43;;
11675;SDS011;5894;42.768;23.404;2023-01-28T12:03:42;7.93;;;5.67;;
11675;SDS011;5894;42.768;23.404;2023-01-28T12:06:40;7.13;;;5.37;;
11675;SDS011;5894;42.768;23.404;2023-01-28T12:09:18;6.90;;;5.10;;
11675;SDS011;5894;42.768;23.404;2023-01-28T12:11:57;6.63;;;5.17;;
11675;SDS011;5894;42.768;23.404;2023-01-28T12:17:47;6.97;;;5.20;;
11675;SDS011;5894;42.768;23.404;2023-01-28T12:20:29;8.17;;;5.83;;
11675;SDS011;5894;42.768;23.404;2023-01-28T12:23:15;7.07;;;5.53;;
11675;SDS011;5894;42.768;23.404;2023-01-28T12:26:00;6.47;;;5.23;;
11675;SDS011;5894;42.768;23.404;2023-01-28T12:28:38;6.37;;;5.27;;
11675;SDS011;5894;42.768;23.404;2023-01-28T12:34:30;6.47;;;5.17;;
11675;SDS011;5894;42.768;23.404;2023-01-28T12:37:24;7.10;;;5.20;;
11675;SDS011;5894;42.768;23.404;2023-01-28T12:40:04;6.50;;;5.03;;
11675;SDS011;5894;42.768;23.404;2023-01-28T12:42:43;7.00;;;5.60;;
11675;SDS011;5894;42.768;23.404;2023-01-28T12:45:14;6.70;;;5.50;;
11675;SDS011;5894;42.768;23.404;2023-01-28T12:47:47;6.73;;;5.67;;
11675;SDS011;5894;42.768;23.404;2023-01-28T12:50:20;7.43;;;5.60;;
11675;SDS011;5894;42.768;23.404;2023-01-28T12:52:51;7.77;;;5.67;;
11675;SDS011;5894;42.768;23.404;2023-01-28T12:55:28;7.17;;;5.53;;
11675;SDS011;5894;42.768;23.404;2023-01-28T12:58:04;8.33;;;5.77;;
11675;SDS011;5894;42.768;23.404;2023-01-28T13:00:38;9.17;;;5.90;;
11675;SDS011;5894;42.768;23.404;2023-01-28T13:03:13;8.17;;;5.93;;
11675;SDS011;5894;42.768;23.404;2023-01-28T13:05:47;6.73;;;5.23;;
11675;SDS011;5894;42.768;23.404;2023-01-28T13:08:16;6.87;;;5.70;;
11675;SDS011;5894;42.768;23.404;2023-01-28T13:10:49;7.10;;;5.90;;
11675;SDS011;5894;42.768;23.404;2023-01-28T13:13:19;9.17;;;6.90;;
11675;SDS011;5894;42.768;23.404;2023-01-28T13:15:50;8.77;;;6.80;;
11675;SDS011;5894;42.768;23.404;2023-01-28T13:18:29;11.30;;;7.53;;
11675;SDS011;5894;42.768;23.404;2023-01-28T13:20:57;11.37;;;7.90;;
11675;SDS011;5894;42.768;23.404;2023-01-28T13:23:25;10.30;;;7.70;;
11675;SDS011;5894;42.768;23.404;2023-01-28T13:26:09;9.63;;;7.53;;
11675;SDS011;5894;42.768;23.404;2023-01-28T13:28:53;12.23;;;8.70;;
11675;SDS011;5894;42.768;23.404;2023-01-28T13:31:36;10.40;;;7.73;;
11675;SDS011;5894;42.768;23.404;2023-01-28T13:34:05;13.37;;;8.27;;
11675;SDS011;5894;42.768;23.404;2023-01-28T13:36:36;9.73;;;7.47;;
11675;SDS011;5894;42.768;23.404;2023-01-28T13:39:05;11.17;;;7.77;;
11675;SDS011;5894;42.768;23.404;2023-01-28T13:41:42;9.83;;;7.27;;
11675;SDS011;5894;42.768;23.404;2023-01-28T13:44:17;10.50;;;7.53;;
11675;SDS011;5894;42.768;23.404;2023-01-28T13:46:46;10.57;;;7.33;;
11675;SDS011;5894;42.768;23.404;2023-01-28T13:49:14;9.50;;;7.27;;
11675;SDS011;5894;42.768;23.404;2023-01-28T13:51:46;10.07;;;7.23;;
11675;SDS011;5894;42.768;23.404;2023-01-28T13:54:21;11.30;;;7.53;;
11675;SDS011;5894;42.768;23.404;2023-01-28T13:56:54;10.90;;;7.67;;
11675;SDS011;5894;42.768;23.404;2023-01-28T13:59:38;11.00;;;7.77;;
11675;SDS011;5894;42.768;23.404;2023-01-28T14:02:29;11.77;;;7.87;;
11675;SDS011;5894;42.768;23.404;2023-01-28T14:05:40;11.27;;;7.93;;
11675;SDS011;5894;42.768;23.404;2023-01-28T14:08:32;10.37;;;7.43;;
11675;SDS011;5894;42.768;23.404;2023-01-28T14:11:16;10.03;;;7.53;;
11675;SDS011;5894;42.768;23.404;2023-01-28T14:14:04;12.90;;;7.67;;
11675;SDS011;5894;42.768;23.404;2023-01-28T14:16:57;10.77;;;7.90;;
11675;SDS011;5894;42.768;23.404;2023-01-28T14:19:30;10.93;;;7.87;;
11675;SDS011;5894;42.768;23.404;2023-01-28T14:22:04;11.00;;;8.27;;
11675;SDS011;5894;42.768;23.404;2023-01-28T14:24:32;10.83;;;8.07;;
11675;SDS011;5894;42.768;23.404;2023-01-28T14:27:00;10.93;;;8.17;;
11675;SDS011;5894;42.768;23.404;2023-01-28T14:29:37;12.03;;;8.43;;
11675;SDS011;5894;42.768;23.404;2023-01-28T14:32:14;11.80;;;8.20;;
11675;SDS011;5894;42.768;23.404;2023-01-28T14:34:42;12.73;;;8.60;;
11675;SDS011;5894;42.768;23.404;2023-01-28T14:37:11;13.30;;;8.53;;
11675;SDS011;5894;42.768;23.404;2023-01-28T14:39:41;11.47;;;8.17;;
11675;SDS011;5894;42.768;23.404;2023-01-28T14:42:12;12.83;;;8.30;;
11675;SDS011;5894;42.768;23.404;2023-01-28T14:44:45;12.57;;;8.70;;
11675;SDS011;5894;42.768;23.404;2023-01-28T14:47:26;13.27;;;8.23;;
11675;SDS011;5894;42.768;23.404;2023-01-28T14:53:12;12.73;;;8.87;;
11675;SDS011;5894;42.768;23.404;2023-01-28T14:56:01;13.80;;;10.03;;
11675;SDS011;5894;42.768;23.404;2023-01-28T14:58:39;19.20;;;12.63;;
11675;SDS011;5894;42.768;23.404;2023-01-28T15:01:22;18.43;;;11.97;;
11675;SDS011;5894;42.768;23.404;2023-01-28T15:03:50;16.57;;;11.33;;
11675;SDS011;5894;42.768;23.404;2023-01-28T15:06:19;14.30;;;9.67;;
11675;SDS011;5894;42.768;23.404;2023-01-28T15:08:48;11.83;;;8.33;;
11675;SDS011;5894;42.768;23.404;2023-01-28T15:11:16;12.87;;;9.17;;
11675;SDS011;5894;42.768;23.404;2023-01-28T15:13:46;14.60;;;9.00;;
11675;SDS011;5894;42.768;23.404;2023-01-28T15:16:19;12.00;;;8.60;;
11675;SDS011;5894;42.768;23.404;2023-01-28T15:18:48;12.97;;;8.50;;
11675;SDS011;5894;42.768;23.404;2023-01-28T15:21:18;11.43;;;8.10;;
11675;SDS011;5894;42.768;23.404;2023-01-28T15:23:47;11.97;;;8.20;;
11675;SDS011;5894;42.768;23.404;2023-01-28T15:26:17;12.47;;;8.57;;
11675;SDS011;5894;42.768;23.404;2023-01-28T15:28:46;13.27;;;8.23;;
11675;SDS011;5894;42.768;23.404;2023-01-28T15:31:20;11.00;;;7.70;;